createdAt,value
2018-12-17T00:00:29.333Z,9.97
2018-12-17T00:05:46.993Z,9.50
2018-12-17T00:11:04.745Z,9.53
2018-12-17T00:16:22.217Z,9.23
2018-12-17T00:21:39.679Z,8.47
2018-12-17T00:26:57.137Z,8.27
2018-12-17T00:32:14.611Z,8.27
2018-12-17T00:37:32.137Z,8.03
2018-12-17T00:42:49.609Z,7.83
2018-12-17T00:48:07.059Z,7.40
2018-12-17T00:53:24.527Z,7.30
2018-12-17T00:58:41.984Z,7.50
2018-12-17T01:03:59.483Z,6.90
2018-12-17T01:09:17.301Z,6.93
2018-12-17T01:14:35.034Z,8.20
2018-12-17T01:19:52.505Z,7.53
2018-12-17T01:25:09.990Z,7.78
2018-12-17T01:30:27.458Z,7.30
2018-12-17T01:35:44.929Z,7.77
2018-12-17T01:41:02.389Z,8.57
2018-12-17T01:46:19.849Z,8.33
2018-12-17T01:51:37.304Z,8.53
2018-12-17T01:56:54.783Z,8.75
2018-12-17T02:02:12.338Z,8.80
2018-12-17T02:07:29.813Z,8.93
2018-12-17T02:12:47.277Z,8.47
2018-12-17T02:18:04.809Z,8.80
2018-12-17T02:23:22.293Z,9.40
2018-12-17T02:28:40.041Z,9.17
2018-12-17T02:33:57.501Z,7.77
2018-12-17T02:39:14.967Z,8.50
2018-12-17T02:44:32.457Z,8.57
2018-12-17T02:49:49.928Z,9.05
2018-12-17T02:55:07.477Z,9.70
2018-12-17T03:00:24.969Z,8.70
2018-12-17T03:05:42.798Z,8.43
2018-12-17T03:11:00.280Z,9.00
2018-12-17T03:16:17.749Z,8.10
2018-12-17T03:21:35.236Z,7.37
2018-12-17T03:26:52.689Z,7.80
2018-12-17T03:32:10.146Z,7.93
2018-12-17T03:37:27.618Z,7.20
2018-12-17T03:42:45.084Z,7.90
2018-12-17T03:48:02.603Z,8.60
2018-12-17T03:53:20.070Z,6.60
2018-12-17T03:58:37.529Z,7.17
2018-12-17T04:03:54.997Z,6.17
2018-12-17T04:09:12.709Z,5.23
2018-12-17T04:14:30.189Z,7.23
2018-12-17T04:19:47.650Z,5.93
2018-12-17T04:25:05.586Z,6.40
2018-12-17T04:30:23.288Z,5.97
2018-12-17T04:35:40.755Z,5.35
2018-12-17T04:40:58.493Z,5.97
2018-12-17T04:46:16.326Z,4.93
2018-12-17T04:51:33.798Z,5.70
2018-12-17T04:56:51.642Z,4.87
2018-12-17T05:02:09.181Z,4.70
2018-12-17T05:07:26.657Z,5.17
2018-12-17T05:12:44.121Z,4.23
2018-12-17T05:18:01.628Z,5.80
2018-12-17T05:23:19.092Z,5.80
2018-12-17T05:28:36.614Z,5.13
2018-12-17T05:33:54.875Z,6.20
2018-12-17T05:39:12.421Z,5.47
2018-12-17T05:44:29.869Z,5.77
2018-12-17T05:49:47.331Z,6.83
2018-12-17T05:55:05.566Z,6.63
2018-12-17T06:00:24.237Z,7.37
2018-12-17T06:05:41.680Z,5.53
2018-12-17T06:10:59.153Z,6.90
2018-12-17T06:16:16.797Z,7.33
2018-12-17T06:21:34.307Z,6.60
2018-12-17T06:26:51.774Z,7.73
2018-12-17T06:32:09.243Z,6.67
2018-12-17T06:37:26.697Z,7.07
2018-12-17T06:42:44.167Z,7.07
2018-12-17T06:48:01.638Z,6.93
2018-12-17T06:53:19.101Z,7.70
2018-12-17T06:58:36.568Z,6.47
2018-12-17T07:03:54.045Z,7.83
2018-12-17T07:09:11.505Z,7.40
2018-12-17T07:14:29.073Z,8.07
2018-12-17T07:19:46.548Z,8.07
2018-12-17T07:25:05.687Z,7.40
2018-12-17T07:30:23.249Z,8.73
2018-12-17T07:35:40.949Z,8.33
2018-12-17T07:40:58.420Z,7.90
2018-12-17T07:46:15.921Z,7.33
2018-12-17T07:51:33.391Z,6.60
2018-12-17T07:56:50.850Z,6.90
2018-12-17T08:02:08.325Z,6.42
2018-12-17T08:07:25.795Z,6.07
2018-12-17T08:12:43.257Z,6.50
2018-12-17T08:18:26.923Z,6.77
2018-12-17T08:23:44.395Z,6.93
2018-12-17T08:29:01.878Z,6.40
2018-12-17T08:34:19.633Z,7.53
2018-12-17T08:39:37.106Z,5.47
2018-12-17T08:44:54.564Z,7.37
2018-12-17T08:50:12.137Z,7.03
2018-12-17T08:55:29.617Z,7.53
2018-12-17T09:00:47.082Z,6.23
2018-12-17T09:06:04.637Z,6.07
2018-12-17T09:11:22.125Z,6.83
2018-12-17T09:16:39.633Z,7.30
2018-12-17T09:21:57.116Z,7.27
2018-12-17T09:27:14.593Z,7.17
2018-12-17T09:32:32.060Z,7.03
2018-12-17T09:37:49.584Z,7.57
2018-12-17T09:43:07.255Z,7.10
2018-12-17T09:48:24.718Z,7.47
2018-12-17T09:53:42.193Z,6.83
2018-12-17T09:58:59.909Z,7.07
2018-12-17T10:04:17.378Z,6.80
2018-12-17T10:09:34.850Z,7.17
2018-12-17T10:14:52.829Z,6.57
2018-12-17T10:20:10.298Z,7.05
2018-12-17T10:25:27.761Z,7.25
2018-12-17T10:30:45.884Z,6.30
2018-12-17T10:36:03.458Z,6.10
2018-12-17T10:41:21.244Z,6.83
2018-12-17T10:46:38.719Z,7.30
2018-12-17T10:51:56.174Z,8.30
2018-12-17T10:57:13.640Z,8.43
2018-12-17T11:02:32.921Z,9.10
2018-12-17T11:07:50.389Z,9.90
2018-12-17T11:13:07.962Z,11.00
2018-12-17T11:18:25.768Z,11.90
2018-12-17T11:23:44.164Z,11.95
2018-12-17T11:29:01.817Z,12.43
2018-12-17T11:34:19.298Z,12.27
2018-12-17T11:39:36.769Z,11.23
2018-12-17T11:44:54.233Z,12.40
2018-12-17T11:50:12.957Z,12.37
2018-12-17T11:55:30.442Z,11.77
2018-12-17T12:00:53.666Z,10.83
2018-12-17T12:06:14.030Z,9.23
2018-12-17T12:11:27.806Z,9.43
2018-12-17T12:16:45.274Z,10.10
2018-12-17T12:22:03.102Z,11.23
2018-12-17T12:27:20.596Z,13.63
2018-12-17T12:32:38.378Z,10.72
2018-12-17T12:37:55.852Z,11.03
2018-12-17T12:43:13.359Z,10.97
2018-12-17T12:48:30.850Z,10.97
2018-12-17T12:53:48.649Z,8.68
2018-12-17T12:59:06.136Z,8.67
2018-12-17T13:04:23.704Z,9.30
2018-12-17T13:09:41.169Z,9.53
2018-12-17T13:14:58.635Z,8.73
2018-12-17T13:20:16.124Z,9.53
2018-12-17T13:25:35.593Z,9.13
2018-12-17T13:30:53.212Z,7.50
2018-12-17T13:36:10.769Z,6.30
2018-12-17T13:41:28.228Z,5.13
2018-12-17T13:46:45.720Z,4.87
2018-12-17T13:52:08.864Z,4.60
2018-12-17T13:57:26.411Z,5.83
2018-12-17T14:02:43.892Z,6.23
2018-12-17T14:08:01.369Z,8.10
2018-12-17T14:13:18.848Z,8.40
2018-12-17T14:18:42.166Z,7.30
2018-12-17T14:23:59.645Z,7.10
2018-12-17T14:29:17.241Z,7.07
2018-12-17T14:34:34.832Z,6.57
2018-12-17T14:39:52.421Z,6.97
2018-12-17T14:45:10.372Z,7.37
2018-12-17T14:50:27.845Z,7.67
2018-12-17T14:55:45.313Z,8.20
2018-12-17T15:01:02.801Z,8.90
2018-12-17T15:06:20.265Z,8.47
2018-12-17T15:11:37.756Z,8.87
2018-12-17T15:16:55.233Z,8.80
2018-12-17T15:22:12.923Z,8.40
2018-12-17T15:27:30.395Z,7.70
2018-12-17T15:32:47.860Z,7.97
2018-12-17T15:38:05.331Z,7.83
2018-12-17T15:43:22.812Z,8.17
2018-12-17T15:48:40.273Z,9.33
2018-12-17T15:53:57.734Z,9.57
2018-12-17T15:59:15.289Z,9.87
2018-12-17T16:04:32.881Z,9.87
2018-12-17T16:09:52.365Z,9.93
2018-12-17T16:15:09.868Z,10.43
2018-12-17T16:20:27.466Z,10.87
2018-12-17T16:25:44.933Z,11.17
2018-12-17T16:31:02.416Z,12.60
2018-12-17T16:36:20.172Z,13.13
2018-12-17T16:41:37.753Z,12.13
2018-12-17T16:46:55.228Z,11.47
2018-12-17T16:52:12.694Z,10.57
2018-12-17T16:57:30.168Z,11.33
2018-12-17T17:02:47.643Z,11.70
2018-12-17T17:08:05.372Z,23.13
2018-12-17T17:13:22.840Z,11.63
2018-12-17T17:18:41.381Z,10.83
2018-12-17T17:23:58.849Z,13.33
2018-12-17T17:29:16.403Z,13.23
2018-12-17T17:34:33.885Z,11.63
2018-12-17T17:39:51.341Z,11.77
2018-12-17T17:45:08.944Z,11.67
2018-12-17T17:50:26.521Z,12.13
2018-12-17T17:55:44.087Z,12.83
2018-12-17T18:01:01.878Z,12.50
2018-12-17T18:06:19.467Z,12.40
2018-12-17T18:11:36.987Z,12.37
2018-12-17T18:16:54.451Z,11.10
2018-12-17T18:22:11.914Z,12.13
2018-12-17T18:32:58.880Z,12.27
2018-12-17T18:38:16.364Z,11.93
2018-12-17T18:43:33.829Z,12.77
2018-12-17T18:48:51.634Z,12.63
2018-12-17T18:54:09.133Z,12.40
2018-12-17T18:59:26.801Z,12.20
2018-12-17T19:04:44.269Z,12.50
2018-12-17T19:10:01.822Z,12.10
2018-12-17T19:15:19.308Z,12.07
2018-12-17T19:20:36.785Z,12.03
2018-12-17T19:25:54.272Z,12.43
2018-12-17T19:31:11.746Z,14.03
2018-12-17T19:36:29.257Z,13.50
2018-12-17T19:41:47.025Z,12.77
2018-12-17T19:47:04.483Z,13.87
2018-12-17T19:52:21.945Z,13.30
2018-12-17T19:57:39.420Z,12.13
2018-12-17T20:02:56.977Z,11.23
2018-12-17T20:08:14.449Z,11.87
2018-12-17T20:13:31.934Z,12.53
2018-12-17T20:18:49.413Z,11.70
2018-12-17T20:24:06.883Z,12.37
2018-12-17T20:29:24.376Z,10.37
2018-12-17T20:34:42.209Z,11.63
2018-12-17T20:39:59.690Z,10.67
2018-12-17T20:45:17.166Z,11.65
2018-12-17T20:50:34.630Z,11.17
2018-12-17T20:55:52.097Z,11.23
2018-12-17T21:01:09.585Z,10.17
2018-12-17T21:06:27.120Z,10.40
2018-12-17T21:11:45.051Z,11.23
2018-12-17T21:17:02.517Z,10.23
2018-12-17T21:22:19.990Z,10.77
2018-12-17T21:27:37.461Z,10.00
2018-12-17T21:32:54.929Z,9.67
2018-12-17T21:38:12.396Z,9.60
2018-12-17T21:43:35.907Z,9.80
2018-12-17T21:48:49.751Z,9.60
2018-12-17T21:54:07.232Z,9.70
2018-12-17T21:59:24.724Z,10.60
2018-12-17T22:04:42.187Z,9.60
2018-12-17T22:10:01.065Z,9.63
2018-12-17T22:15:18.773Z,8.80
2018-12-17T22:20:36.277Z,8.63
2018-12-17T22:25:53.737Z,8.73
2018-12-17T22:31:11.202Z,8.80
2018-12-17T22:36:28.685Z,8.13
2018-12-17T22:41:46.150Z,8.13
2018-12-17T22:47:03.726Z,7.67
2018-12-17T22:52:21.208Z,7.87
2018-12-17T22:57:39.212Z,8.37
2018-12-17T23:02:56.730Z,8.03
2018-12-17T23:08:14.192Z,8.57
2018-12-17T23:13:43.523Z,8.63
2018-12-17T23:19:00.521Z,9.00
2018-12-17T23:24:18.039Z,8.50
2018-12-17T23:29:35.628Z,8.07
2018-12-17T23:34:53.084Z,8.90
2018-12-17T23:40:10.566Z,7.65
2018-12-17T23:45:28.033Z,7.40
2018-12-17T23:50:45.492Z,7.73
2018-12-17T23:56:03.090Z,7.40
